sensor_id;sensor_type;location;lat;lon;timestamp;P1;durP1;ratioP1;P2;durP2;ratioP2
13969;SDS011;7057;49.984;8.404;2022-07-24T00:01:16;3.87;;;3.23;;
13969;SDS011;7057;49.984;8.404;2022-07-24T00:03:43;3.03;;;2.83;;
13969;SDS011;7057;49.984;8.404;2022-07-24T00:06:10;3.90;;;3.10;;
13969;SDS011;7057;49.984;8.404;2022-07-24T00:08:37;3.70;;;3.20;;
13969;SDS011;7057;49.984;8.404;2022-07-24T00:11:05;3.60;;;3.13;;
13969;SDS011;7057;49.984;8.404;2022-07-24T00:13:33;4.57;;;2.90;;
13969;SDS011;7057;49.984;8.404;2022-07-24T00:16:01;3.90;;;3.47;;
13969;SDS011;7057;49.984;8.404;2022-07-24T00:18:29;3.17;;;2.97;;
13969;SDS011;7057;49.984;8.404;2022-07-24T00:20:56;3.40;;;3.10;;
13969;SDS011;7057;49.984;8.404;2022-07-24T00:23:24;3.93;;;3.37;;
13969;SDS011;7057;49.984;8.404;2022-07-24T00:25:51;3.87;;;3.07;;
13969;SDS011;7057;49.984;8.404;2022-07-24T00:28:19;4.03;;;3.07;;
13969;SDS011;7057;49.984;8.404;2022-07-24T00:30:47;3.77;;;3.40;;
13969;SDS011;7057;49.984;8.404;2022-07-24T00:33:15;4.43;;;3.03;;
13969;SDS011;7057;49.984;8.404;2022-07-24T00:35:43;3.67;;;2.90;;
13969;SDS011;7057;49.984;8.404;2022-07-24T00:38:10;3.60;;;2.87;;
13969;SDS011;7057;49.984;8.404;2022-07-24T00:40:37;3.47;;;2.90;;
13969;SDS011;7057;49.984;8.404;2022-07-24T00:43:05;4.13;;;3.33;;
13969;SDS011;7057;49.984;8.404;2022-07-24T00:45:32;3.93;;;3.00;;
13969;SDS011;7057;49.984;8.404;2022-07-24T00:47:59;4.30;;;3.13;;
13969;SDS011;7057;49.984;8.404;2022-07-24T00:50:28;3.43;;;3.13;;
13969;SDS011;7057;49.984;8.404;2022-07-24T00:52:55;4.07;;;3.07;;
13969;SDS011;7057;49.984;8.404;2022-07-24T00:55:23;3.63;;;3.33;;
13969;SDS011;7057;49.984;8.404;2022-07-24T00:57:50;3.57;;;2.90;;
13969;SDS011;7057;49.984;8.404;2022-07-24T01:00:18;3.13;;;2.67;;
13969;SDS011;7057;49.984;8.404;2022-07-24T01:02:47;3.53;;;3.10;;
13969;SDS011;7057;49.984;8.404;2022-07-24T01:05:16;4.13;;;3.13;;
13969;SDS011;7057;49.984;8.404;2022-07-24T01:07:45;3.10;;;2.77;;
13969;SDS011;7057;49.984;8.404;2022-07-24T01:10:13;2.97;;;2.73;;
13969;SDS011;7057;49.984;8.404;2022-07-24T01:12:40;2.87;;;2.67;;
13969;SDS011;7057;49.984;8.404;2022-07-24T01:15:08;3.63;;;2.73;;
13969;SDS011;7057;49.984;8.404;2022-07-24T01:17:38;3.83;;;3.10;;
13969;SDS011;7057;49.984;8.404;2022-07-24T01:20:07;3.07;;;2.80;;
13969;SDS011;7057;49.984;8.404;2022-07-24T01:22:37;3.00;;;2.70;;
13969;SDS011;7057;49.984;8.404;2022-07-24T01:25:05;5.00;;;2.87;;
13969;SDS011;7057;49.984;8.404;2022-07-24T01:27:32;3.37;;;2.90;;
13969;SDS011;7057;49.984;8.404;2022-07-24T01:30:00;4.57;;;3.13;;
13969;SDS011;7057;49.984;8.404;2022-07-24T01:32:27;3.40;;;3.10;;
13969;SDS011;7057;49.984;8.404;2022-07-24T01:34:54;3.33;;;3.03;;
13969;SDS011;7057;49.984;8.404;2022-07-24T01:37:21;3.77;;;2.77;;
13969;SDS011;7057;49.984;8.404;2022-07-24T01:39:50;3.43;;;3.13;;
13969;SDS011;7057;49.984;8.404;2022-07-24T01:42:17;3.20;;;2.90;;
13969;SDS011;7057;49.984;8.404;2022-07-24T01:44:46;4.30;;;3.27;;
13969;SDS011;7057;49.984;8.404;2022-07-24T01:47:13;4.07;;;2.97;;
13969;SDS011;7057;49.984;8.404;2022-07-24T01:49:41;3.87;;;3.30;;
13969;SDS011;7057;49.984;8.404;2022-07-24T01:52:08;3.13;;;2.83;;
13969;SDS011;7057;49.984;8.404;2022-07-24T01:54:35;4.43;;;3.13;;
13969;SDS011;7057;49.984;8.404;2022-07-24T01:57:04;3.10;;;2.90;;
13969;SDS011;7057;49.984;8.404;2022-07-24T01:59:31;3.67;;;3.07;;
13969;SDS011;7057;49.984;8.404;2022-07-24T02:01:58;5.83;;;2.97;;
13969;SDS011;7057;49.984;8.404;2022-07-24T02:04:25;4.07;;;3.27;;
13969;SDS011;7057;49.984;8.404;2022-07-24T02:06:53;4.43;;;3.40;;
13969;SDS011;7057;49.984;8.404;2022-07-24T02:09:20;3.10;;;2.80;;
13969;SDS011;7057;49.984;8.404;2022-07-24T02:11:47;4.63;;;3.07;;
13969;SDS011;7057;49.984;8.404;2022-07-24T02:14:15;3.20;;;2.90;;
13969;SDS011;7057;49.984;8.404;2022-07-24T02:16:42;4.43;;;3.00;;
13969;SDS011;7057;49.984;8.404;2022-07-24T02:19:10;2.90;;;2.63;;
13969;SDS011;7057;49.984;8.404;2022-07-24T02:21:37;3.10;;;2.80;;
13969;SDS011;7057;49.984;8.404;2022-07-24T02:24:04;3.03;;;2.83;;
13969;SDS011;7057;49.984;8.404;2022-07-24T02:26:32;3.43;;;3.13;;
13969;SDS011;7057;49.984;8.404;2022-07-24T02:28:59;3.97;;;3.17;;
13969;SDS011;7057;49.984;8.404;2022-07-24T02:31:28;5.07;;;3.20;;
13969;SDS011;7057;49.984;8.404;2022-07-24T02:33:55;3.03;;;2.73;;
13969;SDS011;7057;49.984;8.404;2022-07-24T02:36:22;3.70;;;3.23;;
13969;SDS011;7057;49.984;8.404;2022-07-24T02:38:49;3.85;;;3.30;;
13969;SDS011;7057;49.984;8.404;2022-07-24T02:41:17;4.67;;;3.30;;
13969;SDS011;7057;49.984;8.404;2022-07-24T02:43:44;2.80;;;2.60;;
13969;SDS011;7057;49.984;8.404;2022-07-24T02:46:11;3.70;;;3.40;;
13969;SDS011;7057;49.984;8.404;2022-07-24T02:48:39;3.60;;;3.10;;
13969;SDS011;7057;49.984;8.404;2022-07-24T02:51:06;3.73;;;3.40;;
13969;SDS011;7057;49.984;8.404;2022-07-24T02:53:35;4.23;;;3.03;;
13969;SDS011;7057;49.984;8.404;2022-07-24T02:56:03;4.07;;;3.10;;
13969;SDS011;7057;49.984;8.404;2022-07-24T02:58:31;3.70;;;3.40;;
13969;SDS011;7057;49.984;8.404;2022-07-24T03:00:58;5.13;;;3.30;;
13969;SDS011;7057;49.984;8.404;2022-07-24T03:03:25;3.37;;;3.07;;
13969;SDS011;7057;49.984;8.404;2022-07-24T03:05:54;3.27;;;2.97;;
13969;SDS011;7057;49.984;8.404;2022-07-24T03:08:21;3.97;;;3.03;;
13969;SDS011;7057;49.984;8.404;2022-07-24T03:10:48;3.97;;;3.20;;
13969;SDS011;7057;49.984;8.404;2022-07-24T03:13:15;3.53;;;3.03;;
13969;SDS011;7057;49.984;8.404;2022-07-24T03:15:42;3.80;;;3.10;;
13969;SDS011;7057;49.984;8.404;2022-07-24T03:18:09;5.90;;;3.57;;
13969;SDS011;7057;49.984;8.404;2022-07-24T03:20:36;4.67;;;3.50;;
13969;SDS011;7057;49.984;8.404;2022-07-24T03:23:05;3.40;;;3.10;;
13969;SDS011;7057;49.984;8.404;2022-07-24T03:25:32;3.57;;;3.00;;
13969;SDS011;7057;49.984;8.404;2022-07-24T03:27:59;6.17;;;3.30;;
13969;SDS011;7057;49.984;8.404;2022-07-24T03:30:26;5.33;;;3.30;;
13969;SDS011;7057;49.984;8.404;2022-07-24T03:32:53;3.73;;;3.07;;
13969;SDS011;7057;49.984;8.404;2022-07-24T03:35:20;3.40;;;3.10;;
13969;SDS011;7057;49.984;8.404;2022-07-24T03:37:47;4.43;;;3.60;;
13969;SDS011;7057;49.984;8.404;2022-07-24T03:40:16;5.83;;;3.30;;
13969;SDS011;7057;49.984;8.404;2022-07-24T03:42:43;4.07;;;3.23;;
13969;SDS011;7057;49.984;8.404;2022-07-24T03:45:10;3.10;;;2.90;;
13969;SDS011;7057;49.984;8.404;2022-07-24T03:47:37;3.60;;;3.30;;
13969;SDS011;7057;49.984;8.404;2022-07-24T03:50:05;4.47;;;3.50;;
13969;SDS011;7057;49.984;8.404;2022-07-24T03:52:32;3.67;;;3.03;;
13969;SDS011;7057;49.984;8.404;2022-07-24T03:54:59;3.30;;;2.77;;
13969;SDS011;7057;49.984;8.404;2022-07-24T03:57:28;3.50;;;3.20;;
13969;SDS011;7057;49.984;8.404;2022-07-24T03:59:55;4.30;;;3.10;;
13969;SDS011;7057;49.984;8.404;2022-07-24T04:02:22;3.37;;;3.07;;
13969;SDS011;7057;49.984;8.404;2022-07-24T04:04:50;3.97;;;3.20;;
13969;SDS011;7057;49.984;8.404;2022-07-24T04:07:17;4.07;;;3.03;;
13969;SDS011;7057;49.984;8.404;2022-07-24T04:09:44;4.53;;;3.03;;
13969;SDS011;7057;49.984;8.404;2022-07-24T04:12:11;4.13;;;2.90;;
13969;SDS011;7057;49.984;8.404;2022-07-24T04:14:40;3.97;;;3.30;;
13969;SDS011;7057;49.984;8.404;2022-07-24T04:17:08;2.90;;;2.57;;
13969;SDS011;7057;49.984;8.404;2022-07-24T04:19:35;6.67;;;3.20;;
13969;SDS011;7057;49.984;8.404;2022-07-24T04:22:02;3.57;;;3.20;;
13969;SDS011;7057;49.984;8.404;2022-07-24T04:24:29;3.33;;;2.93;;
13969;SDS011;7057;49.984;8.404;2022-07-24T04:26:56;4.20;;;3.20;;
13969;SDS011;7057;49.984;8.404;2022-07-24T04:29:24;5.27;;;3.40;;
13969;SDS011;7057;49.984;8.404;2022-07-24T04:31:52;4.03;;;3.30;;
13969;SDS011;7057;49.984;8.404;2022-07-24T04:34:19;3.77;;;3.13;;
13969;SDS011;7057;49.984;8.404;2022-07-24T04:36:46;3.77;;;2.97;;
13969;SDS011;7057;49.984;8.404;2022-07-24T04:39:13;4.93;;;3.27;;
13969;SDS011;7057;49.984;8.404;2022-07-24T04:41:41;4.90;;;3.43;;
13969;SDS011;7057;49.984;8.404;2022-07-24T04:44:08;5.33;;;3.13;;
13969;SDS011;7057;49.984;8.404;2022-07-24T04:46:35;3.20;;;2.90;;
13969;SDS011;7057;49.984;8.404;2022-07-24T04:49:03;4.00;;;3.50;;
13969;SDS011;7057;49.984;8.404;2022-07-24T04:51:31;3.80;;;3.40;;
13969;SDS011;7057;49.984;8.404;2022-07-24T04:53:58;3.80;;;3.40;;
13969;SDS011;7057;49.984;8.404;2022-07-24T04:56:25;5.50;;;3.40;;
13969;SDS011;7057;49.984;8.404;2022-07-24T04:58:55;3.70;;;3.30;;
13969;SDS011;7057;49.984;8.404;2022-07-24T05:01:22;4.00;;;3.17;;
13969;SDS011;7057;49.984;8.404;2022-07-24T05:03:49;4.23;;;3.37;;
13969;SDS011;7057;49.984;8.404;2022-07-24T05:06:18;4.17;;;3.10;;
13969;SDS011;7057;49.984;8.404;2022-07-24T05:08:45;3.33;;;3.00;;
13969;SDS011;7057;49.984;8.404;2022-07-24T05:11:12;3.93;;;3.37;;
13969;SDS011;7057;49.984;8.404;2022-07-24T05:13:39;3.53;;;3.23;;
13969;SDS011;7057;49.984;8.404;2022-07-24T05:16:07;3.70;;;3.17;;
13969;SDS011;7057;49.984;8.404;2022-07-24T05:18:34;5.70;;;3.63;;
13969;SDS011;7057;49.984;8.404;2022-07-24T05:21:02;4.27;;;3.30;;
13969;SDS011;7057;49.984;8.404;2022-07-24T05:23:30;3.73;;;3.30;;
13969;SDS011;7057;49.984;8.404;2022-07-24T05:25:57;3.93;;;3.23;;
13969;SDS011;7057;49.984;8.404;2022-07-24T05:28:24;3.87;;;3.30;;
13969;SDS011;7057;49.984;8.404;2022-07-24T05:30:51;4.73;;;3.07;;
13969;SDS011;7057;49.984;8.404;2022-07-24T05:33:19;4.50;;;3.20;;
13969;SDS011;7057;49.984;8.404;2022-07-24T05:35:46;3.80;;;3.40;;
13969;SDS011;7057;49.984;8.404;2022-07-24T05:38:13;3.20;;;2.67;;
13969;SDS011;7057;49.984;8.404;2022-07-24T05:40:41;3.20;;;2.90;;
13969;SDS011;7057;49.984;8.404;2022-07-24T05:43:08;5.30;;;3.50;;
13969;SDS011;7057;49.984;8.404;2022-07-24T05:45:35;4.20;;;3.20;;
13969;SDS011;7057;49.984;8.404;2022-07-24T05:48:03;4.27;;;3.30;;
13969;SDS011;7057;49.984;8.404;2022-07-24T05:50:31;3.30;;;2.83;;
13969;SDS011;7057;49.984;8.404;2022-07-24T05:52:58;4.70;;;3.23;;
13969;SDS011;7057;49.984;8.404;2022-07-24T05:55:25;3.57;;;2.97;;
13969;SDS011;7057;49.984;8.404;2022-07-24T05:57:54;3.37;;;3.07;;
13969;SDS011;7057;49.984;8.404;2022-07-24T06:00:21;3.93;;;3.07;;
13969;SDS011;7057;49.984;8.404;2022-07-24T06:02:48;4.27;;;3.37;;
13969;SDS011;7057;49.984;8.404;2022-07-24T06:05:16;4.97;;;3.00;;
13969;SDS011;7057;49.984;8.404;2022-07-24T06:07:43;2.70;;;2.50;;
13969;SDS011;7057;49.984;8.404;2022-07-24T06:10:11;3.43;;;3.10;;
13969;SDS011;7057;49.984;8.404;2022-07-24T06:12:38;4.60;;;3.40;;
13969;SDS011;7057;49.984;8.404;2022-07-24T06:15:08;4.13;;;3.00;;
13969;SDS011;7057;49.984;8.404;2022-07-24T06:17:35;5.20;;;3.00;;
13969;SDS011;7057;49.984;8.404;2022-07-24T06:20:02;3.43;;;3.10;;
13969;SDS011;7057;49.984;8.404;2022-07-24T06:22:30;3.87;;;3.13;;
13969;SDS011;7057;49.984;8.404;2022-07-24T06:24:58;3.50;;;3.10;;
13969;SDS011;7057;49.984;8.404;2022-07-24T06:27:25;5.00;;;3.13;;
13969;SDS011;7057;49.984;8.404;2022-07-24T06:29:52;5.03;;;3.17;;
13969;SDS011;7057;49.984;8.404;2022-07-24T06:32:21;4.40;;;3.03;;
13969;SDS011;7057;49.984;8.404;2022-07-24T06:34:48;5.40;;;3.00;;
13969;SDS011;7057;49.984;8.404;2022-07-24T06:37:15;3.33;;;3.03;;
13969;SDS011;7057;49.984;8.404;2022-07-24T06:39:42;4.20;;;2.90;;
13969;SDS011;7057;49.984;8.404;2022-07-24T06:42:09;5.30;;;2.70;;
13969;SDS011;7057;49.984;8.404;2022-07-24T06:44:36;3.67;;;2.97;;
13969;SDS011;7057;49.984;8.404;2022-07-24T06:47:04;2.87;;;2.50;;
13969;SDS011;7057;49.984;8.404;2022-07-24T06:49:33;6.70;;;3.00;;
13969;SDS011;7057;49.984;8.404;2022-07-24T06:52:00;4.90;;;3.00;;
13969;SDS011;7057;49.984;8.404;2022-07-24T06:54:27;3.60;;;2.40;;
13969;SDS011;7057;49.984;8.404;2022-07-24T06:56:54;2.87;;;2.60;;
13969;SDS011;7057;49.984;8.404;2022-07-24T06:59:21;3.57;;;2.80;;
13969;SDS011;7057;49.984;8.404;2022-07-24T07:01:49;4.53;;;3.00;;
13969;SDS011;7057;49.984;8.404;2022-07-24T07:04:16;3.30;;;2.90;;
13969;SDS011;7057;49.984;8.404;2022-07-24T07:06:44;3.07;;;2.60;;
13969;SDS011;7057;49.984;8.404;2022-07-24T07:09:11;2.90;;;2.60;;
13969;SDS011;7057;49.984;8.404;2022-07-24T07:11:38;3.10;;;2.60;;
13969;SDS011;7057;49.984;8.404;2022-07-24T07:14:06;2.93;;;2.67;;
13969;SDS011;7057;49.984;8.404;2022-07-24T07:16:33;3.03;;;2.73;;
13969;SDS011;7057;49.984;8.404;2022-07-24T07:19:00;2.50;;;2.30;;
13969;SDS011;7057;49.984;8.404;2022-07-24T07:21:27;3.30;;;2.93;;
13969;SDS011;7057;49.984;8.404;2022-07-24T07:23:56;3.10;;;2.80;;
13969;SDS011;7057;49.984;8.404;2022-07-24T07:26:23;3.20;;;2.90;;
13969;SDS011;7057;49.984;8.404;2022-07-24T07:28:50;3.30;;;3.00;;
13969;SDS011;7057;49.984;8.404;2022-07-24T07:31:17;3.13;;;2.80;;
13969;SDS011;7057;49.984;8.404;2022-07-24T07:33:44;3.13;;;2.83;;
13969;SDS011;7057;49.984;8.404;2022-07-24T07:36:11;3.60;;;3.30;;
13969;SDS011;7057;49.984;8.404;2022-07-24T07:38:38;3.23;;;2.93;;
13969;SDS011;7057;49.984;8.404;2022-07-24T07:41:07;3.90;;;2.90;;
13969;SDS011;7057;49.984;8.404;2022-07-24T07:43:34;3.93;;;3.00;;
13969;SDS011;7057;49.984;8.404;2022-07-24T07:46:01;3.70;;;2.80;;
13969;SDS011;7057;49.984;8.404;2022-07-24T07:48:28;3.43;;;3.07;;
13969;SDS011;7057;49.984;8.404;2022-07-24T07:50:56;3.77;;;3.20;;
13969;SDS011;7057;49.984;8.404;2022-07-24T07:53:24;3.73;;;3.30;;
13969;SDS011;7057;49.984;8.404;2022-07-24T07:55:51;3.50;;;3.20;;
13969;SDS011;7057;49.984;8.404;2022-07-24T07:58:19;3.50;;;3.20;;
13969;SDS011;7057;49.984;8.404;2022-07-24T08:00:47;3.60;;;3.20;;
13969;SDS011;7057;49.984;8.404;2022-07-24T08:03:15;3.77;;;3.13;;
13969;SDS011;7057;49.984;8.404;2022-07-24T08:05:42;3.73;;;3.43;;
13969;SDS011;7057;49.984;8.404;2022-07-24T08:08:09;3.40;;;2.90;;
13969;SDS011;7057;49.984;8.404;2022-07-24T08:10:37;4.07;;;3.20;;
13969;SDS011;7057;49.984;8.404;2022-07-24T08:13:04;3.93;;;3.33;;
13969;SDS011;7057;49.984;8.404;2022-07-24T08:15:32;4.70;;;3.10;;
13969;SDS011;7057;49.984;8.404;2022-07-24T08:18:00;4.57;;;3.53;;
13969;SDS011;7057;49.984;8.404;2022-07-24T08:20:27;4.03;;;3.37;;
13969;SDS011;7057;49.984;8.404;2022-07-24T08:22:54;3.40;;;3.10;;
13969;SDS011;7057;49.984;8.404;2022-07-24T08:25:21;3.50;;;3.20;;
13969;SDS011;7057;49.984;8.404;2022-07-24T08:27:49;4.10;;;3.33;;
13969;SDS011;7057;49.984;8.404;2022-07-24T08:30:16;5.50;;;3.70;;
13969;SDS011;7057;49.984;8.404;2022-07-24T08:32:45;4.67;;;4.00;;
13969;SDS011;7057;49.984;8.404;2022-07-24T08:35:12;4.07;;;3.77;;
13969;SDS011;7057;49.984;8.404;2022-07-24T08:37:40;4.57;;;3.60;;
13969;SDS011;7057;49.984;8.404;2022-07-24T08:40:09;3.60;;;3.30;;
13969;SDS011;7057;49.984;8.404;2022-07-24T08:42:37;3.73;;;3.40;;
13969;SDS011;7057;49.984;8.404;2022-07-24T08:45:05;4.87;;;3.70;;
13969;SDS011;7057;49.984;8.404;2022-07-24T08:47:34;4.53;;;3.83;;
13969;SDS011;7057;49.984;8.404;2022-07-24T08:50:04;4.47;;;3.53;;
13969;SDS011;7057;49.984;8.404;2022-07-24T08:52:33;5.53;;;3.90;;
13969;SDS011;7057;49.984;8.404;2022-07-24T08:55:00;4.00;;;3.70;;
13969;SDS011;7057;49.984;8.404;2022-07-24T08:57:28;3.90;;;3.53;;
13969;SDS011;7057;49.984;8.404;2022-07-24T08:59:56;3.78;;;3.47;;
13969;SDS011;7057;49.984;8.404;2022-07-24T09:02:23;4.37;;;3.47;;
13969;SDS011;7057;49.984;8.404;2022-07-24T09:04:57;4.83;;;4.43;;
13969;SDS011;7057;49.984;8.404;2022-07-24T09:07:27;4.20;;;3.80;;
13969;SDS011;7057;49.984;8.404;2022-07-24T09:09:59;4.13;;;3.60;;
13969;SDS011;7057;49.984;8.404;2022-07-24T09:12:30;3.90;;;3.17;;
13969;SDS011;7057;49.984;8.404;2022-07-24T09:14:58;4.10;;;3.43;;
13969;SDS011;7057;49.984;8.404;2022-07-24T09:17:27;4.57;;;3.50;;
13969;SDS011;7057;49.984;8.404;2022-07-24T09:19:55;4.20;;;3.40;;
13969;SDS011;7057;49.984;8.404;2022-07-24T09:22:31;5.23;;;4.23;;
13969;SDS011;7057;49.984;8.404;2022-07-24T09:25:11;3.90;;;3.60;;
13969;SDS011;7057;49.984;8.404;2022-07-24T09:27:41;4.10;;;3.70;;
13969;SDS011;7057;49.984;8.404;2022-07-24T09:30:20;5.23;;;3.67;;
13969;SDS011;7057;49.984;8.404;2022-07-24T09:32:53;4.23;;;3.70;;
13969;SDS011;7057;49.984;8.404;2022-07-24T09:35:22;4.23;;;3.83;;
13969;SDS011;7057;49.984;8.404;2022-07-24T09:37:55;3.90;;;3.50;;
13969;SDS011;7057;49.984;8.404;2022-07-24T09:40:27;4.80;;;3.83;;
13969;SDS011;7057;49.984;8.404;2022-07-24T09:42:56;4.17;;;3.77;;
13969;SDS011;7057;49.984;8.404;2022-07-24T09:45:51;4.27;;;3.87;;
13969;SDS011;7057;49.984;8.404;2022-07-24T09:48:23;4.90;;;4.10;;
13969;SDS011;7057;49.984;8.404;2022-07-24T09:50:52;4.50;;;4.10;;
13969;SDS011;7057;49.984;8.404;2022-07-24T09:53:23;4.27;;;3.87;;
13969;SDS011;7057;49.984;8.404;2022-07-24T09:56:02;4.27;;;3.83;;
13969;SDS011;7057;49.984;8.404;2022-07-24T09:58:33;4.47;;;3.87;;
13969;SDS011;7057;49.984;8.404;2022-07-24T10:01:03;5.10;;;4.40;;
13969;SDS011;7057;49.984;8.404;2022-07-24T10:03:32;6.90;;;4.27;;
13969;SDS011;7057;49.984;8.404;2022-07-24T10:06:01;4.50;;;4.10;;
13969;SDS011;7057;49.984;8.404;2022-07-24T10:08:31;4.57;;;3.80;;
13969;SDS011;7057;49.984;8.404;2022-07-24T10:11:00;4.63;;;4.23;;
13969;SDS011;7057;49.984;8.404;2022-07-24T10:13:28;6.37;;;4.70;;
13969;SDS011;7057;49.984;8.404;2022-07-24T10:18:49;4.23;;;3.93;;
13969;SDS011;7057;49.984;8.404;2022-07-24T10:21:18;5.37;;;3.97;;
13969;SDS011;7057;49.984;8.404;2022-07-24T10:23:58;5.07;;;4.57;;
13969;SDS011;7057;49.984;8.404;2022-07-24T10:26:46;5.10;;;4.60;;
13969;SDS011;7057;49.984;8.404;2022-07-24T10:29:15;5.47;;;4.73;;
13969;SDS011;7057;49.984;8.404;2022-07-24T10:31:43;5.37;;;4.47;;
13969;SDS011;7057;49.984;8.404;2022-07-24T10:34:13;5.60;;;4.40;;
13969;SDS011;7057;49.984;8.404;2022-07-24T10:36:55;5.73;;;4.40;;
13969;SDS011;7057;49.984;8.404;2022-07-24T10:39:34;5.00;;;4.60;;
13969;SDS011;7057;49.984;8.404;2022-07-24T10:42:05;5.07;;;4.57;;
13969;SDS011;7057;49.984;8.404;2022-07-24T10:44:33;5.30;;;4.80;;
13969;SDS011;7057;49.984;8.404;2022-07-24T10:47:03;5.43;;;4.60;;
13969;SDS011;7057;49.984;8.404;2022-07-24T10:49:37;5.53;;;4.47;;
13969;SDS011;7057;49.984;8.404;2022-07-24T10:52:11;5.40;;;4.63;;
13969;SDS011;7057;49.984;8.404;2022-07-24T10:54:48;5.17;;;4.67;;
13969;SDS011;7057;49.984;8.404;2022-07-24T10:57:46;5.17;;;4.67;;
13969;SDS011;7057;49.984;8.404;2022-07-24T11:00:21;5.43;;;4.33;;
13969;SDS011;7057;49.984;8.404;2022-07-24T11:02:56;5.40;;;4.73;;
13969;SDS011;7057;49.984;8.404;2022-07-24T11:05:26;5.77;;;4.93;;
13969;SDS011;7057;49.984;8.404;2022-07-24T11:11:04;5.07;;;4.50;;
13969;SDS011;7057;49.984;8.404;2022-07-24T11:13:38;6.10;;;4.73;;
13969;SDS011;7057;49.984;8.404;2022-07-24T11:16:17;5.23;;;4.73;;
13969;SDS011;7057;49.984;8.404;2022-07-24T11:22:04;6.70;;;5.37;;
13969;SDS011;7057;49.984;8.404;2022-07-24T11:24:33;5.97;;;5.10;;
13969;SDS011;7057;49.984;8.404;2022-07-24T11:27:05;6.00;;;5.40;;
13969;SDS011;7057;49.984;8.404;2022-07-24T11:29:34;6.37;;;5.63;;
13969;SDS011;7057;49.984;8.404;2022-07-24T11:32:04;5.67;;;5.07;;
13969;SDS011;7057;49.984;8.404;2022-07-24T11:34:34;7.47;;;6.10;;
13969;SDS011;7057;49.984;8.404;2022-07-24T11:37:02;6.20;;;5.60;;
13969;SDS011;7057;49.984;8.404;2022-07-24T11:39:31;6.33;;;5.17;;
13969;SDS011;7057;49.984;8.404;2022-07-24T11:42:00;6.17;;;5.20;;
13969;SDS011;7057;49.984;8.404;2022-07-24T11:44:31;6.03;;;5.37;;
13969;SDS011;7057;49.984;8.404;2022-07-24T11:47:04;5.70;;;5.10;;
13969;SDS011;7057;49.984;8.404;2022-07-24T11:49:38;6.00;;;5.40;;
13969;SDS011;7057;49.984;8.404;2022-07-24T11:52:13;6.53;;;5.03;;
13969;SDS011;7057;49.984;8.404;2022-07-24T11:54:42;5.40;;;4.90;;
13969;SDS011;7057;49.984;8.404;2022-07-24T11:57:15;6.13;;;5.50;;
13969;SDS011;7057;49.984;8.404;2022-07-24T11:59:46;7.03;;;5.43;;
13969;SDS011;7057;49.984;8.404;2022-07-24T12:02:14;6.13;;;5.53;;
13969;SDS011;7057;49.984;8.404;2022-07-24T12:04:42;7.13;;;5.57;;
13969;SDS011;7057;49.984;8.404;2022-07-24T12:07:11;7.30;;;5.43;;
13969;SDS011;7057;49.984;8.404;2022-07-24T12:09:43;5.70;;;4.90;;
13969;SDS011;7057;49.984;8.404;2022-07-24T12:12:17;7.00;;;5.37;;
13969;SDS011;7057;49.984;8.404;2022-07-24T12:14:51;4.90;;;4.40;;
13969;SDS011;7057;49.984;8.404;2022-07-24T12:17:20;6.63;;;4.73;;
13969;SDS011;7057;49.984;8.404;2022-07-24T12:19:51;5.10;;;4.70;;
13969;SDS011;7057;49.984;8.404;2022-07-24T12:22:19;5.83;;;4.17;;
13969;SDS011;7057;49.984;8.404;2022-07-24T12:24:48;5.43;;;4.27;;
13969;SDS011;7057;49.984;8.404;2022-07-24T12:27:31;4.57;;;4.17;;
13969;SDS011;7057;49.984;8.404;2022-07-24T12:30:01;5.43;;;4.40;;
13969;SDS011;7057;49.984;8.404;2022-07-24T12:32:30;4.60;;;4.20;;
13969;SDS011;7057;49.984;8.404;2022-07-24T12:34:57;7.67;;;4.90;;
13969;SDS011;7057;49.984;8.404;2022-07-24T12:37:24;6.20;;;4.37;;
13969;SDS011;7057;49.984;8.404;2022-07-24T12:39:52;4.53;;;3.90;;
13969;SDS011;7057;49.984;8.404;2022-07-24T12:42:28;5.60;;;4.10;;
13969;SDS011;7057;49.984;8.404;2022-07-24T12:45:06;4.73;;;4.23;;
13969;SDS011;7057;49.984;8.404;2022-07-24T12:51:06;5.67;;;4.57;;
13969;SDS011;7057;49.984;8.404;2022-07-24T12:53:37;5.03;;;4.13;;
13969;SDS011;7057;49.984;8.404;2022-07-24T12:56:07;5.00;;;4.50;;
13969;SDS011;7057;49.984;8.404;2022-07-24T12:58:52;5.63;;;4.90;;
13969;SDS011;7057;49.984;8.404;2022-07-24T13:01:22;5.83;;;4.53;;
13969;SDS011;7057;49.984;8.404;2022-07-24T13:03:52;5.30;;;4.60;;
13969;SDS011;7057;49.984;8.404;2022-07-24T13:06:34;5.17;;;4.67;;
13969;SDS011;7057;49.984;8.404;2022-07-24T13:09:03;5.17;;;4.37;;
13969;SDS011;7057;49.984;8.404;2022-07-24T13:11:31;4.93;;;4.40;;
13969;SDS011;7057;49.984;8.404;2022-07-24T13:13:58;4.40;;;4.00;;
13969;SDS011;7057;49.984;8.404;2022-07-24T13:16:33;4.23;;;3.83;;
13969;SDS011;7057;49.984;8.404;2022-07-24T13:19:03;5.20;;;4.70;;
13969;SDS011;7057;49.984;8.404;2022-07-24T13:21:30;5.87;;;4.10;;
13969;SDS011;7057;49.984;8.404;2022-07-24T13:23:58;4.23;;;3.83;;
13969;SDS011;7057;49.984;8.404;2022-07-24T13:26:25;4.30;;;3.90;;
13969;SDS011;7057;49.984;8.404;2022-07-24T13:28:52;4.47;;;4.07;;
13969;SDS011;7057;49.984;8.404;2022-07-24T13:31:20;4.50;;;4.10;;
13969;SDS011;7057;49.984;8.404;2022-07-24T13:33:48;4.23;;;3.90;;
13969;SDS011;7057;49.984;8.404;2022-07-24T13:36:16;4.47;;;4.07;;
13969;SDS011;7057;49.984;8.404;2022-07-24T13:38:44;4.40;;;4.00;;
13969;SDS011;7057;49.984;8.404;2022-07-24T13:41:12;4.40;;;4.00;;
13969;SDS011;7057;49.984;8.404;2022-07-24T13:43:42;5.20;;;4.80;;
13969;SDS011;7057;49.984;8.404;2022-07-24T13:46:09;5.07;;;4.20;;
13969;SDS011;7057;49.984;8.404;2022-07-24T13:48:36;5.10;;;4.60;;
13969;SDS011;7057;49.984;8.404;2022-07-24T13:51:05;5.53;;;4.60;;
13969;SDS011;7057;49.984;8.404;2022-07-24T13:53:32;4.97;;;4.30;;
13969;SDS011;7057;49.984;8.404;2022-07-24T13:55:59;5.17;;;4.57;;
13969;SDS011;7057;49.984;8.404;2022-07-24T13:58:26;5.27;;;4.77;;
13969;SDS011;7057;49.984;8.404;2022-07-24T14:00:53;5.70;;;4.53;;
13969;SDS011;7057;49.984;8.404;2022-07-24T14:03:21;5.00;;;4.50;;
13969;SDS011;7057;49.984;8.404;2022-07-24T14:05:48;5.10;;;4.70;;
13969;SDS011;7057;49.984;8.404;2022-07-24T14:08:16;5.97;;;5.37;;
13969;SDS011;7057;49.984;8.404;2022-07-24T14:10:43;4.87;;;4.47;;
13969;SDS011;7057;49.984;8.404;2022-07-24T14:13:10;6.73;;;4.90;;
13969;SDS011;7057;49.984;8.404;2022-07-24T14:15:37;5.00;;;4.53;;
13969;SDS011;7057;49.984;8.404;2022-07-24T14:18:05;5.03;;;4.53;;
13969;SDS011;7057;49.984;8.404;2022-07-24T14:20:32;7.23;;;4.40;;
13969;SDS011;7057;49.984;8.404;2022-07-24T14:22:59;4.20;;;3.80;;
13969;SDS011;7057;49.984;8.404;2022-07-24T14:25:27;4.50;;;4.10;;
13969;SDS011;7057;49.984;8.404;2022-07-24T14:27:54;5.37;;;4.00;;
13969;SDS011;7057;49.984;8.404;2022-07-24T14:30:22;4.93;;;4.40;;
13969;SDS011;7057;49.984;8.404;2022-07-24T14:32:49;5.97;;;4.60;;
13969;SDS011;7057;49.984;8.404;2022-07-24T14:35:16;5.13;;;4.27;;
13969;SDS011;7057;49.984;8.404;2022-07-24T14:37:43;4.37;;;3.97;;
13969;SDS011;7057;49.984;8.404;2022-07-24T14:40:11;5.27;;;4.77;;
13969;SDS011;7057;49.984;8.404;2022-07-24T14:42:39;5.50;;;4.43;;
13969;SDS011;7057;49.984;8.404;2022-07-24T14:45:07;5.13;;;4.40;;
13969;SDS011;7057;49.984;8.404;2022-07-24T14:47:34;4.87;;;4.37;;
13969;SDS011;7057;49.984;8.404;2022-07-24T14:50:04;4.90;;;4.47;;
13969;SDS011;7057;49.984;8.404;2022-07-24T14:52:32;4.77;;;4.27;;
13969;SDS011;7057;49.984;8.404;2022-07-24T14:54:59;4.23;;;3.83;;
13969;SDS011;7057;49.984;8.404;2022-07-24T14:57:26;4.03;;;3.67;;
13969;SDS011;7057;49.984;8.404;2022-07-24T14:59:55;4.30;;;3.90;;
13969;SDS011;7057;49.984;8.404;2022-07-24T15:02:22;5.37;;;4.03;;
13969;SDS011;7057;49.984;8.404;2022-07-24T15:04:49;4.60;;;4.20;;
13969;SDS011;7057;49.984;8.404;2022-07-24T15:07:16;6.10;;;4.20;;
13969;SDS011;7057;49.984;8.404;2022-07-24T15:09:44;4.83;;;4.33;;
13969;SDS011;7057;49.984;8.404;2022-07-24T15:12:11;5.20;;;4.55;;
13969;SDS011;7057;49.984;8.404;2022-07-24T15:14:38;5.20;;;4.70;;
13969;SDS011;7057;49.984;8.404;2022-07-24T15:17:06;4.77;;;4.00;;
13969;SDS011;7057;49.984;8.404;2022-07-24T15:19:33;4.73;;;4.33;;
13969;SDS011;7057;49.984;8.404;2022-07-24T15:22:01;4.93;;;4.43;;